sensor_id;sensor_type;location;lat;lon;timestamp;P1;durP1;ratioP1;P2;durP2;ratioP2
19903;SDS011;10114;50.970;4.962;2023-04-01T00:00:54;6.57;;;1.17;;
19903;SDS011;10114;50.970;4.962;2023-04-01T00:03:21;6.00;;;1.25;;
19903;SDS011;10114;50.970;4.962;2023-04-01T00:05:47;11.10;;;1.30;;
19903;SDS011;10114;50.970;4.962;2023-04-01T00:08:13;6.57;;;0.90;;
19903;SDS011;10114;50.970;4.962;2023-04-01T00:10:39;6.03;;;1.38;;
19903;SDS011;10114;50.970;4.962;2023-04-01T00:13:05;5.72;;;1.08;;
19903;SDS011;10114;50.970;4.962;2023-04-01T00:15:32;6.85;;;1.15;;
19903;SDS011;10114;50.970;4.962;2023-04-01T00:17:58;6.25;;;0.95;;
19903;SDS011;10114;50.970;4.962;2023-04-01T00:20:24;9.95;;;1.48;;
19903;SDS011;10114;50.970;4.962;2023-04-01T00:22:50;3.75;;;0.85;;
19903;SDS011;10114;50.970;4.962;2023-04-01T00:25:16;6.25;;;1.20;;
19903;SDS011;10114;50.970;4.962;2023-04-01T00:27:43;3.42;;;0.80;;
19903;SDS011;10114;50.970;4.962;2023-04-01T00:30:10;5.25;;;1.20;;
19903;SDS011;10114;50.970;4.962;2023-04-01T00:32:36;6.85;;;1.20;;
19903;SDS011;10114;50.970;4.962;2023-04-01T00:35:02;3.05;;;1.00;;
19903;SDS011;10114;50.970;4.962;2023-04-01T00:37:29;5.40;;;0.95;;
19903;SDS011;10114;50.970;4.962;2023-04-01T00:39:55;4.60;;;0.82;;
19903;SDS011;10114;50.970;4.962;2023-04-01T00:42:21;3.58;;;1.10;;
19903;SDS011;10114;50.970;4.962;2023-04-01T00:44:49;4.32;;;0.98;;
19903;SDS011;10114;50.970;4.962;2023-04-01T00:47:16;5.72;;;1.00;;
19903;SDS011;10114;50.970;4.962;2023-04-01T00:49:44;7.72;;;1.50;;
19903;SDS011;10114;50.970;4.962;2023-04-01T00:52:11;4.45;;;0.98;;
19903;SDS011;10114;50.970;4.962;2023-04-01T00:54:38;6.50;;;1.30;;
19903;SDS011;10114;50.970;4.962;2023-04-01T00:57:08;5.03;;;1.30;;
19903;SDS011;10114;50.970;4.962;2023-04-01T00:59:37;4.03;;;0.98;;
19903;SDS011;10114;50.970;4.962;2023-04-01T01:02:05;5.47;;;1.30;;
19903;SDS011;10114;50.970;4.962;2023-04-01T01:04:33;5.88;;;0.98;;
19903;SDS011;10114;50.970;4.962;2023-04-01T01:07:10;3.72;;;1.02;;
19903;SDS011;10114;50.970;4.962;2023-04-01T01:09:44;3.40;;;1.00;;
19903;SDS011;10114;50.970;4.962;2023-04-01T01:12:18;5.57;;;1.30;;
19903;SDS011;10114;50.970;4.962;2023-04-01T01:17:19;6.10;;;1.05;;
19903;SDS011;10114;50.970;4.962;2023-04-01T01:19:55;5.88;;;0.90;;
19903;SDS011;10114;50.970;4.962;2023-04-01T01:25:18;6.30;;;1.10;;
19903;SDS011;10114;50.970;4.962;2023-04-01T01:27:57;5.03;;;1.55;;
19903;SDS011;10114;50.970;4.962;2023-04-01T01:33:06;5.47;;;1.10;;
19903;SDS011;10114;50.970;4.962;2023-04-01T01:35:38;4.47;;;1.20;;
19903;SDS011;10114;50.970;4.962;2023-04-01T01:38:07;6.55;;;1.20;;
19903;SDS011;10114;50.970;4.962;2023-04-01T01:40:34;5.93;;;1.42;;
19903;SDS011;10114;50.970;4.962;2023-04-01T01:43:04;4.28;;;1.27;;
19903;SDS011;10114;50.970;4.962;2023-04-01T01:45:31;5.55;;;1.40;;
19903;SDS011;10114;50.970;4.962;2023-04-01T01:47:57;5.70;;;1.67;;
19903;SDS011;10114;50.970;4.962;2023-04-01T01:50:25;6.05;;;1.38;;
19903;SDS011;10114;50.970;4.962;2023-04-01T01:52:59;5.70;;;2.10;;
19903;SDS011;10114;50.970;4.962;2023-04-01T01:55:29;5.38;;;1.30;;
19903;SDS011;10114;50.970;4.962;2023-04-01T01:57:57;6.20;;;1.70;;
19903;SDS011;10114;50.970;4.962;2023-04-01T02:00:25;5.75;;;1.40;;
19903;SDS011;10114;50.970;4.962;2023-04-01T02:02:51;5.80;;;2.10;;
19903;SDS011;10114;50.970;4.962;2023-04-01T02:05:20;5.70;;;1.73;;
19903;SDS011;10114;50.970;4.962;2023-04-01T02:07:48;4.18;;;1.80;;
19903;SDS011;10114;50.970;4.962;2023-04-01T02:10:17;6.55;;;1.88;;
19903;SDS011;10114;50.970;4.962;2023-04-01T02:12:44;6.90;;;1.83;;
19903;SDS011;10114;50.970;4.962;2023-04-01T02:15:12;8.65;;;2.00;;
19903;SDS011;10114;50.970;4.962;2023-04-01T02:17:42;6.97;;;1.85;;
19903;SDS011;10114;50.970;4.962;2023-04-01T02:20:13;6.10;;;2.03;;
19903;SDS011;10114;50.970;4.962;2023-04-01T02:22:42;4.40;;;2.00;;
19903;SDS011;10114;50.970;4.962;2023-04-01T02:25:11;7.03;;;1.77;;
19903;SDS011;10114;50.970;4.962;2023-04-01T02:27:38;8.27;;;1.75;;
19903;SDS011;10114;50.970;4.962;2023-04-01T02:30:04;7.00;;;1.83;;
19903;SDS011;10114;50.970;4.962;2023-04-01T02:32:31;5.03;;;1.60;;
19903;SDS011;10114;50.970;4.962;2023-04-01T02:34:58;8.10;;;1.95;;
19903;SDS011;10114;50.970;4.962;2023-04-01T02:37:28;4.03;;;1.65;;
19903;SDS011;10114;50.970;4.962;2023-04-01T02:39:54;6.28;;;1.90;;
19903;SDS011;10114;50.970;4.962;2023-04-01T02:42:24;3.80;;;1.90;;
19903;SDS011;10114;50.970;4.962;2023-04-01T02:44:50;5.93;;;1.90;;
19903;SDS011;10114;50.970;4.962;2023-04-01T02:47:16;8.60;;;2.03;;
19903;SDS011;10114;50.970;4.962;2023-04-01T02:49:42;7.82;;;2.30;;
19903;SDS011;10114;50.970;4.962;2023-04-01T02:52:08;6.75;;;2.35;;
19903;SDS011;10114;50.970;4.962;2023-04-01T02:54:34;8.25;;;2.17;;
19903;SDS011;10114;50.970;4.962;2023-04-01T02:57:00;6.22;;;2.50;;
19903;SDS011;10114;50.970;4.962;2023-04-01T02:59:26;5.32;;;2.28;;
19903;SDS011;10114;50.970;4.962;2023-04-01T03:01:52;8.75;;;2.42;;
19903;SDS011;10114;50.970;4.962;2023-04-01T03:04:18;8.27;;;2.22;;
19903;SDS011;10114;50.970;4.962;2023-04-01T03:06:45;3.88;;;1.85;;
19903;SDS011;10114;50.970;4.962;2023-04-01T03:09:11;6.60;;;2.38;;
19903;SDS011;10114;50.970;4.962;2023-04-01T03:11:37;9.82;;;2.40;;
19903;SDS011;10114;50.970;4.962;2023-04-01T03:14:03;5.88;;;2.22;;
19903;SDS011;10114;50.970;4.962;2023-04-01T03:16:29;6.00;;;2.30;;
19903;SDS011;10114;50.970;4.962;2023-04-01T03:18:55;7.13;;;2.35;;
19903;SDS011;10114;50.970;4.962;2023-04-01T03:21:24;6.30;;;2.40;;
19903;SDS011;10114;50.970;4.962;2023-04-01T03:23:50;5.97;;;2.30;;
19903;SDS011;10114;50.970;4.962;2023-04-01T03:26:16;7.18;;;2.20;;
19903;SDS011;10114;50.970;4.962;2023-04-01T03:28:43;5.45;;;2.10;;
19903;SDS011;10114;50.970;4.962;2023-04-01T03:31:09;5.53;;;2.10;;
19903;SDS011;10114;50.970;4.962;2023-04-01T03:33:36;10.25;;;2.50;;
19903;SDS011;10114;50.970;4.962;2023-04-01T03:36:02;6.60;;;2.35;;
19903;SDS011;10114;50.970;4.962;2023-04-01T03:38:31;6.28;;;2.22;;
19903;SDS011;10114;50.970;4.962;2023-04-01T03:40:57;5.05;;;2.25;;
19903;SDS011;10114;50.970;4.962;2023-04-01T03:43:23;5.57;;;1.80;;
19903;SDS011;10114;50.970;4.962;2023-04-01T03:45:51;3.70;;;1.58;;
19903;SDS011;10114;50.970;4.962;2023-04-01T03:48:17;5.97;;;1.77;;
19903;SDS011;10114;50.970;4.962;2023-04-01T03:50:43;4.78;;;2.05;;
19903;SDS011;10114;50.970;4.962;2023-04-01T03:53:10;7.65;;;1.90;;
19903;SDS011;10114;50.970;4.962;2023-04-01T03:55:36;6.57;;;1.73;;
19903;SDS011;10114;50.970;4.962;2023-04-01T03:58:03;5.43;;;1.50;;
19903;SDS011;10114;50.970;4.962;2023-04-01T04:00:29;4.72;;;2.05;;
19903;SDS011;10114;50.970;4.962;2023-04-01T04:02:56;4.85;;;2.10;;
19903;SDS011;10114;50.970;4.962;2023-04-01T04:05:22;8.65;;;2.35;;
19903;SDS011;10114;50.970;4.962;2023-04-01T04:07:49;5.30;;;1.60;;
19903;SDS011;10114;50.970;4.962;2023-04-01T04:10:15;5.20;;;1.80;;
19903;SDS011;10114;50.970;4.962;2023-04-01T04:12:41;4.35;;;1.70;;
19903;SDS011;10114;50.970;4.962;2023-04-01T04:15:07;5.30;;;1.85;;
19903;SDS011;10114;50.970;4.962;2023-04-01T04:17:34;4.80;;;2.08;;
19903;SDS011;10114;50.970;4.962;2023-04-01T04:20:00;6.28;;;2.00;;
19903;SDS011;10114;50.970;4.962;2023-04-01T04:22:26;7.65;;;2.13;;
19903;SDS011;10114;50.970;4.962;2023-04-01T04:24:52;5.20;;;2.40;;
19903;SDS011;10114;50.970;4.962;2023-04-01T04:27:18;6.70;;;2.08;;
19903;SDS011;10114;50.970;4.962;2023-04-01T04:29:44;6.13;;;2.47;;
19903;SDS011;10114;50.970;4.962;2023-04-01T04:32:10;7.00;;;2.67;;
19903;SDS011;10114;50.970;4.962;2023-04-01T04:34:36;7.32;;;3.50;;
19903;SDS011;10114;50.970;4.962;2023-04-01T04:37:02;5.95;;;2.70;;
19903;SDS011;10114;50.970;4.962;2023-04-01T04:39:28;10.68;;;2.90;;
19903;SDS011;10114;50.970;4.962;2023-04-01T04:41:55;10.10;;;3.08;;
19903;SDS011;10114;50.970;4.962;2023-04-01T04:44:21;10.25;;;3.33;;
19903;SDS011;10114;50.970;4.962;2023-04-01T04:46:47;8.88;;;3.08;;
19903;SDS011;10114;50.970;4.962;2023-04-01T04:49:13;9.57;;;3.65;;
19903;SDS011;10114;50.970;4.962;2023-04-01T04:51:39;8.57;;;3.53;;
19903;SDS011;10114;50.970;4.962;2023-04-01T04:54:05;11.40;;;4.68;;
19903;SDS011;10114;50.970;4.962;2023-04-01T04:56:32;8.35;;;3.70;;
19903;SDS011;10114;50.970;4.962;2023-04-01T04:58:58;9.48;;;4.10;;
19903;SDS011;10114;50.970;4.962;2023-04-01T05:01:24;10.52;;;3.97;;
19903;SDS011;10114;50.970;4.962;2023-04-01T05:03:51;14.63;;;4.88;;
19903;SDS011;10114;50.970;4.962;2023-04-01T05:06:17;9.50;;;3.38;;
19903;SDS011;10114;50.970;4.962;2023-04-01T05:08:43;11.50;;;4.10;;
19903;SDS011;10114;50.970;4.962;2023-04-01T05:11:14;8.15;;;4.32;;
19903;SDS011;10114;50.970;4.962;2023-04-01T05:13:41;10.63;;;4.10;;
19903;SDS011;10114;50.970;4.962;2023-04-01T05:16:08;12.50;;;4.55;;
19903;SDS011;10114;50.970;4.962;2023-04-01T05:18:34;12.07;;;4.70;;
19903;SDS011;10114;50.970;4.962;2023-04-01T05:21:00;14.88;;;5.47;;
19903;SDS011;10114;50.970;4.962;2023-04-01T05:23:26;9.13;;;5.03;;
19903;SDS011;10114;50.970;4.962;2023-04-01T05:25:52;13.50;;;4.90;;
19903;SDS011;10114;50.970;4.962;2023-04-01T05:28:19;10.00;;;4.95;;
19903;SDS011;10114;50.970;4.962;2023-04-01T05:30:45;9.48;;;4.50;;
19903;SDS011;10114;50.970;4.962;2023-04-01T05:33:12;11.13;;;5.38;;
19903;SDS011;10114;50.970;4.962;2023-04-01T05:35:38;11.70;;;5.03;;
19903;SDS011;10114;50.970;4.962;2023-04-01T05:38:05;12.95;;;5.90;;
19903;SDS011;10114;50.970;4.962;2023-04-01T05:40:31;4.65;;;2.58;;
19903;SDS011;10114;50.970;4.962;2023-04-01T05:42:58;8.05;;;4.10;;
19903;SDS011;10114;50.970;4.962;2023-04-01T05:45:24;15.65;;;8.35;;
19903;SDS011;10114;50.970;4.962;2023-04-01T05:47:50;11.25;;;6.00;;
19903;SDS011;10114;50.970;4.962;2023-04-01T05:50:16;13.15;;;5.95;;
19903;SDS011;10114;50.970;4.962;2023-04-01T05:52:42;10.30;;;4.35;;
19903;SDS011;10114;50.970;4.962;2023-04-01T05:55:09;6.43;;;3.25;;
19903;SDS011;10114;50.970;4.962;2023-04-01T05:57:35;6.50;;;3.47;;
19903;SDS011;10114;50.970;4.962;2023-04-01T06:00:02;8.70;;;3.97;;
19903;SDS011;10114;50.970;4.962;2023-04-01T06:02:28;9.38;;;3.67;;
19903;SDS011;10114;50.970;4.962;2023-04-01T06:04:59;7.90;;;3.78;;
19903;SDS011;10114;50.970;4.962;2023-04-01T06:07:28;6.97;;;3.13;;
19903;SDS011;10114;50.970;4.962;2023-04-01T06:09:54;6.60;;;3.63;;
19903;SDS011;10114;50.970;4.962;2023-04-01T06:12:24;6.28;;;3.45;;
19903;SDS011;10114;50.970;4.962;2023-04-01T06:22:51;6.68;;;2.83;;
19903;SDS011;10114;50.970;4.962;2023-04-01T06:41:01;3.65;;;1.40;;
19903;SDS011;10114;50.970;4.962;2023-04-01T06:45:59;5.40;;;2.22;;
19903;SDS011;10114;50.970;4.962;2023-04-01T06:53:54;3.53;;;1.58;;
19903;SDS011;10114;50.970;4.962;2023-04-01T06:56:23;4.05;;;1.85;;
19903;SDS011;10114;50.970;4.962;2023-04-01T06:59:08;3.33;;;1.70;;
19903;SDS011;10114;50.970;4.962;2023-04-01T07:01:37;4.35;;;2.00;;
19903;SDS011;10114;50.970;4.962;2023-04-01T07:04:06;3.50;;;2.03;;
19903;SDS011;10114;50.970;4.962;2023-04-01T07:06:39;3.03;;;1.50;;
19903;SDS011;10114;50.970;4.962;2023-04-01T07:09:08;3.40;;;1.40;;
19903;SDS011;10114;50.970;4.962;2023-04-01T07:11:36;4.68;;;2.50;;
19903;SDS011;10114;50.970;4.962;2023-04-01T07:14:10;3.25;;;1.42;;
19903;SDS011;10114;50.970;4.962;2023-04-01T07:16:43;2.30;;;1.17;;
19903;SDS011;10114;50.970;4.962;2023-04-01T07:19:22;3.60;;;1.83;;
19903;SDS011;10114;50.970;4.962;2023-04-01T07:21:51;3.13;;;1.55;;
19903;SDS011;10114;50.970;4.962;2023-04-01T07:24:29;3.05;;;1.75;;
19903;SDS011;10114;50.970;4.962;2023-04-01T07:26:58;3.78;;;1.60;;
19903;SDS011;10114;50.970;4.962;2023-04-01T07:29:24;3.72;;;2.08;;
19903;SDS011;10114;50.970;4.962;2023-04-01T07:50:13;1.88;;;0.98;;
19903;SDS011;10114;50.970;4.962;2023-04-01T07:55:16;3.78;;;1.60;;
19903;SDS011;10114;50.970;4.962;2023-04-01T07:57:58;4.57;;;1.50;;
19903;SDS011;10114;50.970;4.962;2023-04-01T08:00:35;5.05;;;1.58;;
19903;SDS011;10114;50.970;4.962;2023-04-01T08:05:50;4.82;;;1.75;;
19903;SDS011;10114;50.970;4.962;2023-04-01T08:08:20;2.85;;;1.45;;
19903;SDS011;10114;50.970;4.962;2023-04-01T08:13:37;2.97;;;1.48;;
19903;SDS011;10114;50.970;4.962;2023-04-01T08:21:21;4.75;;;1.95;;
19903;SDS011;10114;50.970;4.962;2023-04-01T08:23:52;6.38;;;1.90;;
19903;SDS011;10114;50.970;4.962;2023-04-01T08:26:29;5.22;;;2.47;;
19903;SDS011;10114;50.970;4.962;2023-04-01T08:29:08;4.32;;;2.00;;
19903;SDS011;10114;50.970;4.962;2023-04-01T08:31:38;5.00;;;2.60;;
19903;SDS011;10114;50.970;4.962;2023-04-01T08:34:10;4.43;;;2.00;;
19903;SDS011;10114;50.970;4.962;2023-04-01T08:36:40;3.60;;;1.60;;
19903;SDS011;10114;50.970;4.962;2023-04-01T08:39:12;5.43;;;1.95;;
19903;SDS011;10114;50.970;4.962;2023-04-01T08:42:27;4.95;;;2.30;;
19903;SDS011;10114;50.970;4.962;2023-04-01T09:10:30;4.72;;;1.90;;
19903;SDS011;10114;50.970;4.962;2023-04-01T09:23:40;4.63;;;1.30;;
19903;SDS011;10114;50.970;4.962;2023-04-01T09:36:37;3.08;;;1.25;;
19903;SDS011;10114;50.970;4.962;2023-04-01T09:49:20;4.30;;;1.40;;
19903;SDS011;10114;50.970;4.962;2023-04-01T10:15:58;4.05;;;2.00;;
19903;SDS011;10114;50.970;4.962;2023-04-01T10:23:48;4.15;;;2.05;;
19903;SDS011;10114;50.970;4.962;2023-04-01T10:39:24;5.95;;;2.60;;
19903;SDS011;10114;50.970;4.962;2023-04-01T10:52:46;9.13;;;3.63;;
19903;SDS011;10114;50.970;4.962;2023-04-01T10:58:14;8.65;;;5.15;;
19903;SDS011;10114;50.970;4.962;2023-04-01T11:03:21;11.32;;;5.57;;
19903;SDS011;10114;50.970;4.962;2023-04-01T11:08:58;12.55;;;6.43;;
19903;SDS011;10114;50.970;4.962;2023-04-01T11:14:16;11.13;;;6.70;;
19903;SDS011;10114;50.970;4.962;2023-04-01T11:29:35;10.55;;;4.93;;
19903;SDS011;10114;50.970;4.962;2023-04-01T11:34:55;9.50;;;5.63;;
19903;SDS011;10114;50.970;4.962;2023-04-01T11:42:57;10.40;;;5.20;;
19903;SDS011;10114;50.970;4.962;2023-04-01T11:45:39;9.95;;;4.32;;
19903;SDS011;10114;50.970;4.962;2023-04-01T11:53:29;5.35;;;2.92;;
19903;SDS011;10114;50.970;4.962;2023-04-01T11:56:09;5.13;;;2.38;;
19903;SDS011;10114;50.970;4.962;2023-04-01T11:59:41;6.22;;;2.63;;
19903;SDS011;10114;50.970;4.962;2023-04-01T12:14:50;7.25;;;3.90;;
19903;SDS011;10114;50.970;4.962;2023-04-01T12:22:30;8.65;;;4.53;;
19903;SDS011;10114;50.970;4.962;2023-04-01T12:33:10;9.00;;;4.35;;
19903;SDS011;10114;50.970;4.962;2023-04-01T12:35:53;10.68;;;5.90;;
19903;SDS011;10114;50.970;4.962;2023-04-01T12:59:19;8.95;;;5.13;;
19903;SDS011;10114;50.970;4.962;2023-04-01T13:02:00;8.73;;;4.90;;
19903;SDS011;10114;50.970;4.962;2023-04-01T13:10:13;9.75;;;5.72;;
19903;SDS011;10114;50.970;4.962;2023-04-01T13:22:49;10.73;;;4.75;;
19903;SDS011;10114;50.970;4.962;2023-04-01T13:25:34;9.18;;;4.93;;
19903;SDS011;10114;50.970;4.962;2023-04-01T13:31:01;8.93;;;4.10;;
19903;SDS011;10114;50.970;4.962;2023-04-01T13:38:47;5.68;;;2.58;;
19903;SDS011;10114;50.970;4.962;2023-04-01T13:43:51;4.43;;;2.28;;
19903;SDS011;10114;50.970;4.962;2023-04-01T13:51:50;5.47;;;2.60;;
19903;SDS011;10114;50.970;4.962;2023-04-01T14:01:59;4.32;;;2.42;;
19903;SDS011;10114;50.970;4.962;2023-04-01T14:07:19;3.03;;;1.60;;
19903;SDS011;10114;50.970;4.962;2023-04-01T14:12:26;3.85;;;2.00;;
19903;SDS011;10114;50.970;4.962;2023-04-01T14:20:22;3.55;;;1.92;;
19903;SDS011;10114;50.970;4.962;2023-04-01T14:25:44;3.63;;;1.70;;
19903;SDS011;10114;50.970;4.962;2023-04-01T14:30:48;3.40;;;1.70;;
19903;SDS011;10114;50.970;4.962;2023-04-01T14:43:28;3.50;;;1.80;;
19903;SDS011;10114;50.970;4.962;2023-04-01T14:51:03;4.68;;;2.33;;
19903;SDS011;10114;50.970;4.962;2023-04-01T14:53:38;6.07;;;2.65;;
19903;SDS011;10114;50.970;4.962;2023-04-01T14:56:07;3.97;;;2.00;;
19903;SDS011;10114;50.970;4.962;2023-04-01T14:58:46;3.45;;;1.80;;
19903;SDS011;10114;50.970;4.962;2023-04-01T15:08:54;4.32;;;2.40;;
19903;SDS011;10114;50.970;4.962;2023-04-01T15:16:34;5.47;;;2.58;;
19903;SDS011;10114;50.970;4.962;2023-04-01T15:19:23;4.25;;;2.78;;
19903;SDS011;10114;50.970;4.962;2023-04-01T15:24:24;4.75;;;2.40;;
19903;SDS011;10114;50.970;4.962;2023-04-01T15:40:02;2.03;;;1.00;;
19903;SDS011;10114;50.970;4.962;2023-04-01T15:48:06;1.15;;;0.50;;
19903;SDS011;10114;50.970;4.962;2023-04-01T16:21:58;8.18;;;3.75;;
19903;SDS011;10114;50.970;4.962;2023-04-01T16:29:50;10.77;;;6.65;;
19903;SDS011;10114;50.970;4.962;2023-04-01T16:37:12;8.68;;;5.32;;
19903;SDS011;10114;50.970;4.962;2023-04-01T16:39:54;7.88;;;5.07;;
19903;SDS011;10114;50.970;4.962;2023-04-01T16:45:32;10.75;;;5.93;;
19903;SDS011;10114;50.970;4.962;2023-04-01T16:55:57;8.43;;;3.72;;
19903;SDS011;10114;50.970;4.962;2023-04-01T17:03:58;6.25;;;3.55;;
19903;SDS011;10114;50.970;4.962;2023-04-01T17:06:41;7.05;;;3.35;;
19903;SDS011;10114;50.970;4.962;2023-04-01T17:14:31;6.68;;;3.22;;
19903;SDS011;10114;50.970;4.962;2023-04-01T17:17:01;6.15;;;3.63;;
19903;SDS011;10114;50.970;4.962;2023-04-01T17:30:17;5.57;;;3.33;;
19903;SDS011;10114;50.970;4.962;2023-04-01T17:35:22;8.20;;;4.82;;
19903;SDS011;10114;50.970;4.962;2023-04-01T17:37:59;6.30;;;3.15;;
19903;SDS011;10114;50.970;4.962;2023-04-01T17:43:26;7.88;;;4.55;;
19903;SDS011;10114;50.970;4.962;2023-04-01T17:45:56;7.80;;;4.80;;
19903;SDS011;10114;50.970;4.962;2023-04-01T17:50:54;7.18;;;4.05;;
19903;SDS011;10114;50.970;4.962;2023-04-01T17:56:08;15.90;;;4.18;;
19903;SDS011;10114;50.970;4.962;2023-04-01T17:58:46;8.68;;;4.57;;
19903;SDS011;10114;50.970;4.962;2023-04-01T18:04:06;6.95;;;3.88;;
19903;SDS011;10114;50.970;4.962;2023-04-01T18:14:40;8.07;;;3.97;;
19903;SDS011;10114;50.970;4.962;2023-04-01T18:17:18;7.53;;;4.65;;
19903;SDS011;10114;50.970;4.962;2023-04-01T18:19:49;8.38;;;4.38;;
19903;SDS011;10114;50.970;4.962;2023-04-01T18:27:23;8.35;;;5.05;;
19903;SDS011;10114;50.970;4.962;2023-04-01T18:35:02;15.40;;;8.07;;
19903;SDS011;10114;50.970;4.962;2023-04-01T18:37:39;11.10;;;6.85;;
19903;SDS011;10114;50.970;4.962;2023-04-01T18:42:45;9.73;;;5.75;;
19903;SDS011;10114;50.970;4.962;2023-04-01T18:52:57;10.30;;;5.10;;
19903;SDS011;10114;50.970;4.962;2023-04-01T18:55:29;18.65;;;9.85;;
19903;SDS011;10114;50.970;4.962;2023-04-01T18:57:58;13.57;;;8.43;;
19903;SDS011;10114;50.970;4.962;2023-04-01T19:00:36;17.95;;;10.02;;
19903;SDS011;10114;50.970;4.962;2023-04-01T19:05:38;18.63;;;11.23;;
19903;SDS011;10114;50.970;4.962;2023-04-01T19:08:47;17.05;;;8.70;;
19903;SDS011;10114;50.970;4.962;2023-04-01T19:16:22;17.25;;;8.02;;
19903;SDS011;10114;50.970;4.962;2023-04-01T19:26:34;19.13;;;8.65;;
19903;SDS011;10114;50.970;4.962;2023-04-01T19:34:39;29.77;;;13.52;;
19903;SDS011;10114;50.970;4.962;2023-04-01T19:39:39;27.10;;;11.93;;
19903;SDS011;10114;50.970;4.962;2023-04-01T20:04:56;18.52;;;8.90;;
19903;SDS011;10114;50.970;4.962;2023-04-01T20:07:30;32.25;;;15.43;;
19903;SDS011;10114;50.970;4.962;2023-04-01T20:14:54;31.70;;;11.30;;
19903;SDS011;10114;50.970;4.962;2023-04-01T20:19:55;24.35;;;10.93;;
19903;SDS011;10114;50.970;4.962;2023-04-01T20:25:20;30.50;;;13.70;;
19903;SDS011;10114;50.970;4.962;2023-04-01T20:27:49;45.25;;;16.23;;
19903;SDS011;10114;50.970;4.962;2023-04-01T20:35:59;35.05;;;15.50;;
19903;SDS011;10114;50.970;4.962;2023-04-01T20:41:28;33.58;;;15.07;;
19903;SDS011;10114;50.970;4.962;2023-04-01T20:44:08;31.27;;;13.70;;
19903;SDS011;10114;50.970;4.962;2023-04-01T20:46:43;31.65;;;14.98;;
19903;SDS011;10114;50.970;4.962;2023-04-01T20:49:21;34.10;;;15.18;;
19903;SDS011;10114;50.970;4.962;2023-04-01T20:51:53;34.00;;;15.60;;
19903;SDS011;10114;50.970;4.962;2023-04-01T20:59:42;31.55;;;15.07;;
19903;SDS011;10114;50.970;4.962;2023-04-01T21:02:22;31.05;;;14.70;;
19903;SDS011;10114;50.970;4.962;2023-04-01T21:12:41;31.48;;;13.90;;
19903;SDS011;10114;50.970;4.962;2023-04-01T21:15:18;25.75;;;11.93;;
19903;SDS011;10114;50.970;4.962;2023-04-01T21:30:52;33.63;;;13.88;;
19903;SDS011;10114;50.970;4.962;2023-04-01T21:40:53;36.67;;;15.63;;
19903;SDS011;10114;50.970;4.962;2023-04-01T21:43:32;30.88;;;14.40;;
19903;SDS011;10114;50.970;4.962;2023-04-01T22:01:42;35.10;;;15.35;;
19903;SDS011;10114;50.970;4.962;2023-04-01T22:11:51;36.75;;;13.95;;
19903;SDS011;10114;50.970;4.962;2023-04-01T22:16:58;35.03;;;15.40;;
19903;SDS011;10114;50.970;4.962;2023-04-01T22:19:42;29.80;;;13.25;;
19903;SDS011;10114;50.970;4.962;2023-04-01T22:22:36;29.83;;;13.18;;
19903;SDS011;10114;50.970;4.962;2023-04-01T22:27:35;34.67;;;14.43;;
19903;SDS011;10114;50.970;4.962;2023-04-01T22:30:23;32.88;;;15.55;;
19903;SDS011;10114;50.970;4.962;2023-04-01T22:43:37;39.08;;;18.58;;
19903;SDS011;10114;50.970;4.962;2023-04-01T22:46:22;38.17;;;15.85;;
19903;SDS011;10114;50.970;4.962;2023-04-01T22:49:03;35.35;;;14.90;;
19903;SDS011;10114;50.970;4.962;2023-04-01T22:51:42;25.60;;;11.75;;
19903;SDS011;10114;50.970;4.962;2023-04-01T22:56:36;27.75;;;12.13;;
19903;SDS011;10114;50.970;4.962;2023-04-01T22:59:14;25.52;;;11.40;;
19903;SDS011;10114;50.970;4.962;2023-04-01T23:01:45;22.67;;;9.20;;
19903;SDS011;10114;50.970;4.962;2023-04-01T23:04:14;22.45;;;10.32;;
19903;SDS011;10114;50.970;4.962;2023-04-01T23:06:43;24.45;;;10.70;;
19903;SDS011;10114;50.970;4.962;2023-04-01T23:11:51;24.77;;;10.38;;
19903;SDS011;10114;50.970;4.962;2023-04-01T23:19:30;25.02;;;9.85;;
19903;SDS011;10114;50.970;4.962;2023-04-01T23:24:33;21.50;;;8.73;;
19903;SDS011;10114;50.970;4.962;2023-04-01T23:27:03;25.23;;;10.70;;
19903;SDS011;10114;50.970;4.962;2023-04-01T23:29:31;20.95;;;9.55;;
19903;SDS011;10114;50.970;4.962;2023-04-01T23:32:01;22.95;;;10.50;;
19903;SDS011;10114;50.970;4.962;2023-04-01T23:34:34;20.45;;;9.95;;
19903;SDS011;10114;50.970;4.962;2023-04-01T23:37:02;20.98;;;9.25;;
19903;SDS011;10114;50.970;4.962;2023-04-01T23:42:05;21.02;;;9.57;;
19903;SDS011;10114;50.970;4.962;2023-04-01T23:44:32;19.20;;;8.60;;
19903;SDS011;10114;50.970;4.962;2023-04-01T23:46:58;20.65;;;8.02;;
19903;SDS011;10114;50.970;4.962;2023-04-01T23:49:28;19.50;;;8.80;;
19903;SDS011;10114;50.970;4.962;2023-04-01T23:51:57;16.40;;;7.07;;
19903;SDS011;10114;50.970;4.962;2023-04-01T23:54:26;16.67;;;7.53;;
19903;SDS011;10114;50.970;4.962;2023-04-01T23:56:55;19.00;;;8.75;;
19903;SDS011;10114;50.970;4.962;2023-04-01T23:59:32;18.08;;;8.23;;
